sensor_id;sensor_type;location;lat;lon;timestamp;pressure;altitude;pressure_sealevel;temperature;humidity
10115;BME280;5097;43.260;27.812;2023-08-31T00:02:31;99257.31;;;24.36;100.00
10115;BME280;5097;43.260;27.812;2023-08-31T00:05:16;99276.13;;;24.51;100.00
10115;BME280;5097;43.260;27.812;2023-08-31T00:08:00;99278.53;;;24.39;100.00
10115;BME280;5097;43.260;27.812;2023-08-31T00:10:44;99271.59;;;24.30;100.00
10115;BME280;5097;43.260;27.812;2023-08-31T00:13:28;99265.16;;;24.31;100.00
10115;BME280;5097;43.260;27.812;2023-08-31T00:16:12;99246.72;;;24.13;100.00
10115;BME280;5097;43.260;27.812;2023-08-31T00:18:58;99230.13;;;24.16;100.00
10115;BME280;5097;43.260;27.812;2023-08-31T00:21:42;99272.78;;;24.64;100.00
10115;BME280;5097;43.260;27.812;2023-08-31T00:24:26;99241.56;;;24.40;100.00
10115;BME280;5097;43.260;27.812;2023-08-31T00:27:16;99265.94;;;24.47;100.00
10115;BME280;5097;43.260;27.812;2023-08-31T00:30:00;99268.56;;;24.62;100.00
10115;BME280;5097;43.260;27.812;2023-08-31T00:32:46;99240.34;;;24.42;100.00
10115;BME280;5097;43.260;27.812;2023-08-31T00:35:33;99277.66;;;24.75;100.00
10115;BME280;5097;43.260;27.812;2023-08-31T00:38:17;99240.44;;;24.27;100.00
10115;BME280;5097;43.260;27.812;2023-08-31T00:41:02;99254.16;;;24.11;100.00
10115;BME280;5097;43.260;27.812;2023-08-31T00:43:46;99288.97;;;23.91;100.00
10115;BME280;5097;43.260;27.812;2023-08-31T00:46:31;99300.97;;;23.73;100.00
10115;BME280;5097;43.260;27.812;2023-08-31T00:49:16;99300.03;;;23.96;100.00
10115;BME280;5097;43.260;27.812;2023-08-31T00:52:02;99290.19;;;24.03;100.00
10115;BME280;5097;43.260;27.812;2023-08-31T00:54:47;99300.19;;;24.09;100.00
10115;BME280;5097;43.260;27.812;2023-08-31T00:57:34;99304.09;;;24.22;100.00
10115;BME280;5097;43.260;27.812;2023-08-31T01:00:19;99312.72;;;24.32;100.00
10115;BME280;5097;43.260;27.812;2023-08-31T01:03:18;99314.66;;;24.60;100.00
10115;BME280;5097;43.260;27.812;2023-08-31T01:06:43;99319.72;;;24.48;100.00
10115;BME280;5097;43.260;27.812;2023-08-31T01:09:39;99315.88;;;24.57;100.00
10115;BME280;5097;43.260;27.812;2023-08-31T01:12:30;99302.13;;;24.52;100.00
10115;BME280;5097;43.260;27.812;2023-08-31T01:15:17;99311.00;;;24.46;100.00
10115;BME280;5097;43.260;27.812;2023-08-31T01:18:03;99280.13;;;24.34;100.00
10115;BME280;5097;43.260;27.812;2023-08-31T01:20:54;99309.78;;;24.49;100.00
10115;BME280;5097;43.260;27.812;2023-08-31T01:23:50;99332.66;;;24.53;100.00
10115;BME280;5097;43.260;27.812;2023-08-31T01:26:35;99250.53;;;24.04;100.00
10115;BME280;5097;43.260;27.812;2023-08-31T01:29:20;99331.25;;;24.35;100.00
10115;BME280;5097;43.260;27.812;2023-08-31T01:32:07;99345.81;;;24.41;100.00
10115;BME280;5097;43.260;27.812;2023-08-31T01:34:53;99331.13;;;24.43;100.00
10115;BME280;5097;43.260;27.812;2023-08-31T01:37:43;99337.53;;;24.42;100.00
10115;BME280;5097;43.260;27.812;2023-08-31T01:40:36;99339.34;;;24.35;100.00
10115;BME280;5097;43.260;27.812;2023-08-31T01:43:22;99343.59;;;24.30;100.00
10115;BME280;5097;43.260;27.812;2023-08-31T01:46:07;99342.94;;;24.42;100.00
10115;BME280;5097;43.260;27.812;2023-08-31T01:48:51;99343.84;;;24.13;100.00
10115;BME280;5097;43.260;27.812;2023-08-31T01:51:35;99344.75;;;24.20;100.00
10115;BME280;5097;43.260;27.812;2023-08-31T01:54:22;99348.56;;;24.26;100.00
10115;BME280;5097;43.260;27.812;2023-08-31T01:57:07;99335.78;;;23.98;100.00
10115;BME280;5097;43.260;27.812;2023-08-31T02:00:12;99347.28;;;24.22;100.00
10115;BME280;5097;43.260;27.812;2023-08-31T02:02:56;99334.91;;;24.13;100.00
10115;BME280;5097;43.260;27.812;2023-08-31T02:05:40;99330.28;;;23.91;100.00
10115;BME280;5097;43.260;27.812;2023-08-31T02:08:26;99325.06;;;24.05;100.00
10115;BME280;5097;43.260;27.812;2023-08-31T02:11:10;99329.09;;;23.94;100.00
10115;BME280;5097;43.260;27.812;2023-08-31T02:13:56;99332.50;;;24.03;100.00
10115;BME280;5097;43.260;27.812;2023-08-31T02:16:41;99343.69;;;24.00;100.00
10115;BME280;5097;43.260;27.812;2023-08-31T02:19:25;99336.41;;;24.00;100.00
10115;BME280;5097;43.260;27.812;2023-08-31T02:22:09;99339.00;;;23.79;100.00
10115;BME280;5097;43.260;27.812;2023-08-31T02:24:53;99338.00;;;23.80;100.00
10115;BME280;5097;43.260;27.812;2023-08-31T02:27:37;99342.28;;;23.89;100.00
10115;BME280;5097;43.260;27.812;2023-08-31T02:30:22;99342.66;;;23.86;100.00
10115;BME280;5097;43.260;27.812;2023-08-31T02:33:06;99350.28;;;23.97;100.00
10115;BME280;5097;43.260;27.812;2023-08-31T02:35:51;99344.38;;;24.23;100.00
10115;BME280;5097;43.260;27.812;2023-08-31T02:38:35;99353.53;;;24.07;100.00
10115;BME280;5097;43.260;27.812;2023-08-31T02:41:19;99351.84;;;24.06;100.00
10115;BME280;5097;43.260;27.812;2023-08-31T02:44:03;99359.72;;;24.23;100.00
10115;BME280;5097;43.260;27.812;2023-08-31T02:46:49;99353.81;;;24.13;100.00
10115;BME280;5097;43.260;27.812;2023-08-31T02:49:33;99354.69;;;24.35;100.00
10115;BME280;5097;43.260;27.812;2023-08-31T02:52:18;99345.63;;;24.42;100.00
10115;BME280;5097;43.260;27.812;2023-08-31T02:55:02;99318.22;;;24.24;100.00
10115;BME280;5097;43.260;27.812;2023-08-31T02:57:47;99359.72;;;24.23;100.00
10115;BME280;5097;43.260;27.812;2023-08-31T03:00:31;99361.00;;;24.27;100.00
10115;BME280;5097;43.260;27.812;2023-08-31T03:03:18;99353.06;;;24.40;100.00
10115;BME280;5097;43.260;27.812;2023-08-31T03:06:02;99354.34;;;24.59;100.00
10115;BME280;5097;43.260;27.812;2023-08-31T03:08:46;99359.59;;;24.46;100.00
10115;BME280;5097;43.260;27.812;2023-08-31T03:11:30;99354.72;;;24.20;100.00
10115;BME280;5097;43.260;27.812;2023-08-31T03:14:14;99349.91;;;24.00;100.00
10115;BME280;5097;43.260;27.812;2023-08-31T03:16:58;99356.22;;;24.07;100.00
10115;BME280;5097;43.260;27.812;2023-08-31T03:19:45;99344.81;;;23.90;100.00
10115;BME280;5097;43.260;27.812;2023-08-31T03:22:29;99358.06;;;24.22;100.00
10115;BME280;5097;43.260;27.812;2023-08-31T03:25:14;99357.31;;;24.28;100.00
10115;BME280;5097;43.260;27.812;2023-08-31T03:27:57;99364.38;;;24.29;100.00
10115;BME280;5097;43.260;27.812;2023-08-31T03:30:42;99362.50;;;24.30;100.00
10115;BME280;5097;43.260;27.812;2023-08-31T03:33:28;99330.66;;;23.88;100.00
10115;BME280;5097;43.260;27.812;2023-08-31T03:36:14;99329.09;;;23.94;100.00
10115;BME280;5097;43.260;27.812;2023-08-31T03:38:59;99341.38;;;23.97;100.00
10115;BME280;5097;43.260;27.812;2023-08-31T03:41:43;99335.69;;;23.91;100.00
10115;BME280;5097;43.260;27.812;2023-08-31T03:44:27;99358.84;;;23.86;100.00
10115;BME280;5097;43.260;27.812;2023-08-31T03:47:11;99373.44;;;23.76;100.00
10115;BME280;5097;43.260;27.812;2023-08-31T03:49:56;99333.44;;;23.65;100.00
10115;BME280;5097;43.260;27.812;2023-08-31T03:52:42;99374.75;;;23.96;100.00
10115;BME280;5097;43.260;27.812;2023-08-31T03:55:26;99372.34;;;24.37;100.00
10115;BME280;5097;43.260;27.812;2023-08-31T03:58:11;99373.31;;;24.51;100.00
10115;BME280;5097;43.260;27.812;2023-08-31T04:00:57;99392.97;;;24.60;100.00
10115;BME280;5097;43.260;27.812;2023-08-31T04:03:42;99393.28;;;24.87;100.00
10115;BME280;5097;43.260;27.812;2023-08-31T04:06:26;99395.69;;;25.03;100.00
10115;BME280;5097;43.260;27.812;2023-08-31T04:09:12;99399.31;;;25.10;100.00
10115;BME280;5097;43.260;27.812;2023-08-31T04:11:56;99377.59;;;24.97;100.00
10115;BME280;5097;43.260;27.812;2023-08-31T04:14:40;99412.50;;;24.99;100.00
10115;BME280;5097;43.260;27.812;2023-08-31T04:17:24;99422.72;;;25.03;100.00
10115;BME280;5097;43.260;27.812;2023-08-31T04:20:09;99408.38;;;25.03;100.00
10115;BME280;5097;43.260;27.812;2023-08-31T04:22:53;99434.94;;;25.21;100.00
10115;BME280;5097;43.260;27.812;2023-08-31T04:25:38;99436.63;;;25.00;100.00
10115;BME280;5097;43.260;27.812;2023-08-31T04:28:22;99436.97;;;24.90;100.00
10115;BME280;5097;43.260;27.812;2023-08-31T04:31:06;99440.00;;;25.02;100.00
10115;BME280;5097;43.260;27.812;2023-08-31T04:33:50;99421.88;;;25.24;100.00
10115;BME280;5097;43.260;27.812;2023-08-31T04:36:36;99429.16;;;25.24;100.00
10115;BME280;5097;43.260;27.812;2023-08-31T04:39:19;99418.91;;;25.19;100.00
10115;BME280;5097;43.260;27.812;2023-08-31T04:42:05;99440.81;;;25.46;100.00
10115;BME280;5097;43.260;27.812;2023-08-31T04:44:49;99438.41;;;25.58;100.00
10115;BME280;5097;43.260;27.812;2023-08-31T04:47:33;99439.91;;;24.96;100.00
10115;BME280;5097;43.260;27.812;2023-08-31T04:50:17;99445.94;;;24.98;100.00
10115;BME280;5097;43.260;27.812;2023-08-31T04:53:01;99451.81;;;25.01;100.00
10115;BME280;5097;43.260;27.812;2023-08-31T04:55:44;99452.84;;;25.00;99.14
10115;BME280;5097;43.260;27.812;2023-08-31T04:58:30;99455.75;;;24.99;96.95
10115;BME280;5097;43.260;27.812;2023-08-31T05:01:13;99459.34;;;25.27;96.03
10115;BME280;5097;43.260;27.812;2023-08-31T05:03:58;99465.47;;;25.36;95.12
10115;BME280;5097;43.260;27.812;2023-08-31T05:06:42;99465.84;;;25.55;94.23
10115;BME280;5097;43.260;27.812;2023-08-31T05:09:26;99467.63;;;25.69;93.04
10115;BME280;5097;43.260;27.812;2023-08-31T05:12:14;99460.16;;;25.71;92.59
10115;BME280;5097;43.260;27.812;2023-08-31T05:15:01;99460.56;;;25.68;91.59
10115;BME280;5097;43.260;27.812;2023-08-31T05:17:46;99472.28;;;25.32;94.57
10115;BME280;5097;43.260;27.812;2023-08-31T05:20:31;99478.25;;;25.06;96.67
10115;BME280;5097;43.260;27.812;2023-08-31T05:23:15;99448.59;;;25.13;97.31
10115;BME280;5097;43.260;27.812;2023-08-31T05:25:59;99438.63;;;25.13;95.71
10115;BME280;5097;43.260;27.812;2023-08-31T05:28:43;99482.31;;;25.17;97.21
10115;BME280;5097;43.260;27.812;2023-08-31T05:31:29;99469.66;;;25.17;97.29
10115;BME280;5097;43.260;27.812;2023-08-31T05:34:16;99446.16;;;24.96;96.56
10115;BME280;5097;43.260;27.812;2023-08-31T05:37:00;99468.47;;;25.05;97.22
10115;BME280;5097;43.260;27.812;2023-08-31T05:39:47;99467.84;;;25.46;96.56
10115;BME280;5097;43.260;27.812;2023-08-31T05:42:31;99472.44;;;25.46;96.10
10115;BME280;5097;43.260;27.812;2023-08-31T05:45:15;99469.00;;;26.15;93.50
10115;BME280;5097;43.260;27.812;2023-08-31T05:48:01;99472.50;;;26.51;91.48
10115;BME280;5097;43.260;27.812;2023-08-31T05:50:45;99476.28;;;27.12;88.80
10115;BME280;5097;43.260;27.812;2023-08-31T05:53:29;99489.91;;;27.38;85.81
10115;BME280;5097;43.260;27.812;2023-08-31T05:56:12;99457.16;;;27.53;84.34
10115;BME280;5097;43.260;27.812;2023-08-31T05:58:56;99485.97;;;27.61;84.10
10115;BME280;5097;43.260;27.812;2023-08-31T06:01:40;99492.84;;;27.84;82.35
10115;BME280;5097;43.260;27.812;2023-08-31T06:04:25;99488.53;;;26.46;90.10
10115;BME280;5097;43.260;27.812;2023-08-31T06:07:09;99505.06;;;26.22;92.50
10115;BME280;5097;43.260;27.812;2023-08-31T06:09:53;99502.16;;;26.24;92.36
10115;BME280;5097;43.260;27.812;2023-08-31T06:12:37;99510.88;;;26.19;91.83
10115;BME280;5097;43.260;27.812;2023-08-31T06:15:20;99524.66;;;25.09;97.51
10115;BME280;5097;43.260;27.812;2023-08-31T06:18:05;99509.44;;;24.87;98.38
10115;BME280;5097;43.260;27.812;2023-08-31T06:20:50;99525.53;;;24.95;97.44
10115;BME280;5097;43.260;27.812;2023-08-31T06:23:34;99515.81;;;25.59;94.01
10115;BME280;5097;43.260;27.812;2023-08-31T06:26:18;99530.47;;;25.71;93.40
10115;BME280;5097;43.260;27.812;2023-08-31T06:29:02;99525.22;;;25.91;91.69
10115;BME280;5097;43.260;27.812;2023-08-31T06:31:46;99511.75;;;25.70;90.94
10115;BME280;5097;43.260;27.812;2023-08-31T06:34:30;99536.06;;;25.91;91.03
10115;BME280;5097;43.260;27.812;2023-08-31T06:37:15;99543.38;;;25.69;91.62
10115;BME280;5097;43.260;27.812;2023-08-31T06:39:59;99539.13;;;25.60;91.13
10115;BME280;5097;43.260;27.812;2023-08-31T06:42:43;99541.69;;;25.68;91.52
10115;BME280;5097;43.260;27.812;2023-08-31T06:45:27;99536.94;;;25.99;89.19
10115;BME280;5097;43.260;27.812;2023-08-31T06:48:11;99543.63;;;26.24;88.09
10115;BME280;5097;43.260;27.812;2023-08-31T06:50:55;99550.28;;;26.00;88.44
10115;BME280;5097;43.260;27.812;2023-08-31T06:53:41;99552.88;;;26.08;88.13
10115;BME280;5097;43.260;27.812;2023-08-31T06:56:25;99546.94;;;26.62;85.56
10115;BME280;5097;43.260;27.812;2023-08-31T06:59:09;99550.09;;;26.65;85.42
10115;BME280;5097;43.260;27.812;2023-08-31T07:01:53;99537.28;;;26.46;85.24
10115;BME280;5097;43.260;27.812;2023-08-31T07:04:37;99525.88;;;27.05;82.76
10115;BME280;5097;43.260;27.812;2023-08-31T07:07:21;99532.34;;;27.11;81.78
10115;BME280;5097;43.260;27.812;2023-08-31T07:10:07;99538.34;;;26.86;82.03
10115;BME280;5097;43.260;27.812;2023-08-31T07:12:51;99518.34;;;26.87;81.17
10115;BME280;5097;43.260;27.812;2023-08-31T07:15:35;99541.56;;;27.17;79.74
10115;BME280;5097;43.260;27.812;2023-08-31T07:18:19;99552.03;;;27.33;79.07
10115;BME280;5097;43.260;27.812;2023-08-31T07:21:03;99557.25;;;27.35;79.68
10115;BME280;5097;43.260;27.812;2023-08-31T07:23:48;99562.53;;;27.63;76.75
10115;BME280;5097;43.260;27.812;2023-08-31T07:26:33;99553.59;;;28.09;75.47
10115;BME280;5097;43.260;27.812;2023-08-31T07:29:17;99552.72;;;28.22;73.86
10115;BME280;5097;43.260;27.812;2023-08-31T07:32:01;99550.44;;;28.19;72.69
10115;BME280;5097;43.260;27.812;2023-08-31T07:34:45;99525.59;;;28.09;71.51
10115;BME280;5097;43.260;27.812;2023-08-31T07:37:29;99546.78;;;28.72;67.98
10115;BME280;5097;43.260;27.812;2023-08-31T07:40:13;99548.31;;;28.48;65.94
10115;BME280;5097;43.260;27.812;2023-08-31T07:43:00;99551.28;;;28.92;65.36
10115;BME280;5097;43.260;27.812;2023-08-31T07:45:44;99538.03;;;28.50;66.17
10115;BME280;5097;43.260;27.812;2023-08-31T07:48:28;99507.97;;;28.38;65.93
10115;BME280;5097;43.260;27.812;2023-08-31T07:51:12;99549.69;;;28.84;63.83
10115;BME280;5097;43.260;27.812;2023-08-31T07:53:56;99552.66;;;28.49;63.32
10115;BME280;5097;43.260;27.812;2023-08-31T07:56:40;99544.94;;;28.53;59.51
10115;BME280;5097;43.260;27.812;2023-08-31T07:59:25;99550.00;;;28.29;60.05
10115;BME280;5097;43.260;27.812;2023-08-31T08:02:10;99547.63;;;28.59;60.48
10115;BME280;5097;43.260;27.812;2023-08-31T08:04:54;99511.53;;;28.46;59.68
10115;BME280;5097;43.260;27.812;2023-08-31T08:07:38;99553.84;;;28.87;57.84
10115;BME280;5097;43.260;27.812;2023-08-31T08:10:24;99564.78;;;28.60;53.96
10115;BME280;5097;43.260;27.812;2023-08-31T08:13:09;99552.84;;;28.61;55.26
10115;BME280;5097;43.260;27.812;2023-08-31T08:15:54;99550.88;;;28.95;55.54
10115;BME280;5097;43.260;27.812;2023-08-31T08:18:38;99529.25;;;29.14;52.44
10115;BME280;5097;43.260;27.812;2023-08-31T08:21:22;99546.47;;;29.39;51.72
10115;BME280;5097;43.260;27.812;2023-08-31T08:24:06;99545.25;;;29.35;52.13
10115;BME280;5097;43.260;27.812;2023-08-31T08:26:50;99546.13;;;29.29;52.73
10115;BME280;5097;43.260;27.812;2023-08-31T08:29:34;99520.44;;;29.18;53.68
10115;BME280;5097;43.260;27.812;2023-08-31T08:32:19;99539.31;;;29.45;53.73
10115;BME280;5097;43.260;27.812;2023-08-31T08:35:04;99541.19;;;29.76;52.80
10115;BME280;5097;43.260;27.812;2023-08-31T08:37:48;99547.84;;;29.55;52.75
10115;BME280;5097;43.260;27.812;2023-08-31T08:40:32;99526.41;;;28.95;52.56
10115;BME280;5097;43.260;27.812;2023-08-31T08:43:24;99551.28;;;29.37;52.04
10115;BME280;5097;43.260;27.812;2023-08-31T08:46:09;99528.69;;;28.98;50.92
10115;BME280;5097;43.260;27.812;2023-08-31T08:48:54;99554.66;;;28.94;52.13
10115;BME280;5097;43.260;27.812;2023-08-31T08:51:39;99563.47;;;28.83;53.69
10115;BME280;5097;43.260;27.812;2023-08-31T08:54:24;99552.53;;;29.03;52.12
10115;BME280;5097;43.260;27.812;2023-08-31T08:57:08;99568.06;;;28.89;52.17
10115;BME280;5097;43.260;27.812;2023-08-31T08:59:52;99564.56;;;29.27;50.81
10115;BME280;5097;43.260;27.812;2023-08-31T09:02:36;99558.34;;;29.06;50.18
10115;BME280;5097;43.260;27.812;2023-08-31T09:05:22;99564.16;;;29.17;52.81
10115;BME280;5097;43.260;27.812;2023-08-31T09:08:07;99563.34;;;29.16;52.01
10115;BME280;5097;43.260;27.812;2023-08-31T09:10:55;99572.38;;;29.49;45.15
10115;BME280;5097;43.260;27.812;2023-08-31T09:13:40;99566.84;;;29.62;45.69
10115;BME280;5097;43.260;27.812;2023-08-31T09:16:25;99562.81;;;29.39;44.60
10115;BME280;5097;43.260;27.812;2023-08-31T09:19:18;99557.25;;;29.85;45.33
10115;BME280;5097;43.260;27.812;2023-08-31T09:22:03;99560.31;;;29.38;46.26
10115;BME280;5097;43.260;27.812;2023-08-31T09:24:47;99541.53;;;29.87;46.12
10115;BME280;5097;43.260;27.812;2023-08-31T09:27:36;99563.22;;;30.00;47.03
10115;BME280;5097;43.260;27.812;2023-08-31T09:30:21;99534.44;;;30.30;46.77
10115;BME280;5097;43.260;27.812;2023-08-31T09:33:06;99555.16;;;30.56;45.37
10115;BME280;5097;43.260;27.812;2023-08-31T09:35:51;99551.06;;;30.65;42.49
10115;BME280;5097;43.260;27.812;2023-08-31T09:38:43;99545.88;;;30.38;45.96
10115;BME280;5097;43.260;27.812;2023-08-31T09:41:27;99557.34;;;30.84;45.25
10115;BME280;5097;43.260;27.812;2023-08-31T09:44:14;99543.13;;;31.13;43.39
10115;BME280;5097;43.260;27.812;2023-08-31T09:47:00;99566.59;;;30.39;44.46
10115;BME280;5097;43.260;27.812;2023-08-31T09:49:47;99569.13;;;30.78;44.18
10115;BME280;5097;43.260;27.812;2023-08-31T09:52:32;99544.81;;;31.14;38.60
10115;BME280;5097;43.260;27.812;2023-08-31T09:55:20;99547.69;;;31.19;37.56
10115;BME280;5097;43.260;27.812;2023-08-31T09:58:06;99529.38;;;31.50;38.84
10115;BME280;5097;43.260;27.812;2023-08-31T10:00:58;99569.69;;;31.05;38.03
10115;BME280;5097;43.260;27.812;2023-08-31T10:03:43;99560.94;;;31.46;38.40
10115;BME280;5097;43.260;27.812;2023-08-31T10:06:27;99560.28;;;31.32;38.15
10115;BME280;5097;43.260;27.812;2023-08-31T10:09:13;99568.03;;;31.47;37.64
10115;BME280;5097;43.260;27.812;2023-08-31T10:11:59;99554.81;;;31.01;38.25
10115;BME280;5097;43.260;27.812;2023-08-31T10:14:43;99548.34;;;30.65;38.72
10115;BME280;5097;43.260;27.812;2023-08-31T10:17:29;99548.09;;;30.85;38.16
10115;BME280;5097;43.260;27.812;2023-08-31T10:20:16;99573.63;;;31.09;40.06
10115;BME280;5097;43.260;27.812;2023-08-31T10:23:02;99574.38;;;31.59;39.21
10115;BME280;5097;43.260;27.812;2023-08-31T10:26:00;99577.31;;;31.88;39.75
10115;BME280;5097;43.260;27.812;2023-08-31T10:28:47;99575.63;;;31.63;39.46
10115;BME280;5097;43.260;27.812;2023-08-31T10:31:32;99572.50;;;31.29;40.60
10115;BME280;5097;43.260;27.812;2023-08-31T10:34:34;99554.22;;;30.81;40.38
10115;BME280;5097;43.260;27.812;2023-08-31T10:37:22;99572.97;;;31.26;40.59
10115;BME280;5097;43.260;27.812;2023-08-31T10:40:07;99585.03;;;31.00;37.97
10115;BME280;5097;43.260;27.812;2023-08-31T10:43:14;99571.38;;;31.00;38.24
10115;BME280;5097;43.260;27.812;2023-08-31T10:46:00;99555.09;;;31.12;38.43
10115;BME280;5097;43.260;27.812;2023-08-31T10:48:52;99579.97;;;31.03;36.71
10115;BME280;5097;43.260;27.812;2023-08-31T10:51:38;99565.06;;;31.06;38.17
10115;BME280;5097;43.260;27.812;2023-08-31T10:54:23;99558.78;;;31.90;36.86
10115;BME280;5097;43.260;27.812;2023-08-31T10:57:08;99546.44;;;31.99;38.18
10115;BME280;5097;43.260;27.812;2023-08-31T10:59:54;99554.66;;;31.99;38.09
10115;BME280;5097;43.260;27.812;2023-08-31T11:02:42;99559.28;;;32.11;37.12
10115;BME280;5097;43.260;27.812;2023-08-31T11:05:26;99565.09;;;32.14;37.12
10115;BME280;5097;43.260;27.812;2023-08-31T11:08:10;99551.56;;;32.07;37.06
10115;BME280;5097;43.260;27.812;2023-08-31T11:10:54;99568.88;;;32.01;36.59
10115;BME280;5097;43.260;27.812;2023-08-31T11:13:38;99576.50;;;31.26;39.25
10115;BME280;5097;43.260;27.812;2023-08-31T11:16:23;99538.97;;;32.06;38.07
10115;BME280;5097;43.260;27.812;2023-08-31T11:19:08;99541.25;;;31.55;39.79
10115;BME280;5097;43.260;27.812;2023-08-31T11:21:53;99560.47;;;31.91;38.37
10115;BME280;5097;43.260;27.812;2023-08-31T11:24:38;99551.34;;;31.55;39.54
10115;BME280;5097;43.260;27.812;2023-08-31T11:27:22;99579.94;;;31.22;38.29
10115;BME280;5097;43.260;27.812;2023-08-31T11:30:12;99576.31;;;31.40;38.54
10115;BME280;5097;43.260;27.812;2023-08-31T11:32:56;99566.34;;;31.76;38.04
10115;BME280;5097;43.260;27.812;2023-08-31T11:35:43;99569.38;;;31.56;37.73
10115;BME280;5097;43.260;27.812;2023-08-31T11:38:28;99584.03;;;30.94;38.91
10115;BME280;5097;43.260;27.812;2023-08-31T11:41:13;99567.19;;;31.34;38.54
10115;BME280;5097;43.260;27.812;2023-08-31T11:43:57;99581.88;;;32.18;37.33
10115;BME280;5097;43.260;27.812;2023-08-31T11:46:44;99586.13;;;32.14;37.88
10115;BME280;5097;43.260;27.812;2023-08-31T11:49:31;99585.47;;;31.64;38.67
10115;BME280;5097;43.260;27.812;2023-08-31T11:52:16;99591.03;;;31.69;38.72
10115;BME280;5097;43.260;27.812;2023-08-31T11:55:01;99586.03;;;31.24;39.19
10115;BME280;5097;43.260;27.812;2023-08-31T11:57:49;99592.81;;;31.64;39.11
10115;BME280;5097;43.260;27.812;2023-08-31T12:00:34;99583.25;;;31.85;40.21
10115;BME280;5097;43.260;27.812;2023-08-31T12:03:18;99558.16;;;31.64;39.60
10115;BME280;5097;43.260;27.812;2023-08-31T12:06:03;99584.59;;;31.33;40.93
10115;BME280;5097;43.260;27.812;2023-08-31T12:08:49;99579.28;;;31.38;39.65
10115;BME280;5097;43.260;27.812;2023-08-31T12:11:33;99544.41;;;31.71;37.61
10115;BME280;5097;43.260;27.812;2023-08-31T12:14:21;99560.47;;;31.91;37.96
10115;BME280;5097;43.260;27.812;2023-08-31T12:17:07;99572.69;;;32.59;36.67
10115;BME280;5097;43.260;27.812;2023-08-31T12:20:02;99577.19;;;32.66;36.20
10115;BME280;5097;43.260;27.812;2023-08-31T12:22:48;99574.97;;;32.03;35.39
10115;BME280;5097;43.260;27.812;2023-08-31T12:25:33;99570.66;;;31.84;35.38
10115;BME280;5097;43.260;27.812;2023-08-31T12:28:17;99569.66;;;32.20;35.75
10115;BME280;5097;43.260;27.812;2023-08-31T12:31:01;99574.97;;;32.15;35.32
10115;BME280;5097;43.260;27.812;2023-08-31T12:33:47;99517.31;;;31.69;35.10
10115;BME280;5097;43.260;27.812;2023-08-31T12:36:30;99576.53;;;32.23;34.32
10115;BME280;5097;43.260;27.812;2023-08-31T12:39:15;99580.13;;;31.69;35.24
10115;BME280;5097;43.260;27.812;2023-08-31T12:42:00;99568.84;;;31.35;37.10
10115;BME280;5097;43.260;27.812;2023-08-31T12:45:02;99564.03;;;32.03;36.47
10115;BME280;5097;43.260;27.812;2023-08-31T12:47:48;99560.22;;;32.75;35.02
10115;BME280;5097;43.260;27.812;2023-08-31T12:50:32;99553.19;;;31.42;38.87
10115;BME280;5097;43.260;27.812;2023-08-31T12:53:16;99556.16;;;31.71;37.87
10115;BME280;5097;43.260;27.812;2023-08-31T12:56:00;99554.28;;;32.43;36.16
10115;BME280;5097;43.260;27.812;2023-08-31T12:58:46;99552.34;;;32.79;33.82
10115;BME280;5097;43.260;27.812;2023-08-31T13:01:30;99542.41;;;32.14;34.54
10115;BME280;5097;43.260;27.812;2023-08-31T13:04:15;99565.84;;;32.21;34.78
10115;BME280;5097;43.260;27.812;2023-08-31T13:06:59;99560.72;;;32.25;35.12
10115;BME280;5097;43.260;27.812;2023-08-31T13:09:44;99553.31;;;32.73;35.11
10115;BME280;5097;43.260;27.812;2023-08-31T13:12:30;99552.53;;;32.37;35.94
10115;BME280;5097;43.260;27.812;2023-08-31T13:15:16;99552.88;;;32.05;36.52
10115;BME280;5097;43.260;27.812;2023-08-31T13:18:00;99571.41;;;32.50;36.09
10115;BME280;5097;43.260;27.812;2023-08-31T13:20:51;99570.50;;;33.26;35.14
10115;BME280;5097;43.260;27.812;2023-08-31T13:23:35;99578.00;;;33.31;34.88
10115;BME280;5097;43.260;27.812;2023-08-31T13:26:18;99580.50;;;33.32;34.22
10115;BME280;5097;43.260;27.812;2023-08-31T13:29:02;99571.78;;;33.06;35.73
10115;BME280;5097;43.260;27.812;2023-08-31T13:31:49;99563.84;;;33.22;34.40
10115;BME280;5097;43.260;27.812;2023-08-31T13:34:33;99588.19;;;33.64;33.17
10115;BME280;5097;43.260;27.812;2023-08-31T13:37:17;99581.53;;;33.02;34.56
10115;BME280;5097;43.260;27.812;2023-08-31T13:40:01;99578.13;;;32.83;34.55
10115;BME280;5097;43.260;27.812;2023-08-31T13:42:54;99568.03;;;33.13;33.56
10115;BME280;5097;43.260;27.812;2023-08-31T13:45:39;99580.28;;;33.51;34.29
10115;BME280;5097;43.260;27.812;2023-08-31T13:48:25;99582.88;;;33.57;46.39
10115;BME280;5097;43.260;27.812;2023-08-31T13:51:09;99584.19;;;33.26;50.24
10115;BME280;5097;43.260;27.812;2023-08-31T13:53:53;99583.41;;;32.37;53.71
10115;BME280;5097;43.260;27.812;2023-08-31T13:56:37;99590.81;;;31.83;54.75
10115;BME280;5097;43.260;27.812;2023-08-31T13:59:21;99586.00;;;31.97;52.66
10115;BME280;5097;43.260;27.812;2023-08-31T14:02:05;99550.69;;;31.41;54.33
10115;BME280;5097;43.260;27.812;2023-08-31T14:04:50;99553.00;;;31.44;54.12
10115;BME280;5097;43.260;27.812;2023-08-31T14:07:35;99587.59;;;31.62;55.60
10115;BME280;5097;43.260;27.812;2023-08-31T14:10:19;99567.81;;;32.02;54.40
10115;BME280;5097;43.260;27.812;2023-08-31T14:13:04;99596.22;;;31.59;56.29
10115;BME280;5097;43.260;27.812;2023-08-31T14:15:48;99587.22;;;31.28;56.73
10115;BME280;5097;43.260;27.812;2023-08-31T14:18:32;99583.16;;;30.63;60.53
10115;BME280;5097;43.260;27.812;2023-08-31T14:21:17;99568.13;;;31.28;57.60
10115;BME280;5097;43.260;27.812;2023-08-31T14:24:03;99587.16;;;31.47;57.31
10115;BME280;5097;43.260;27.812;2023-08-31T14:26:46;99581.78;;;31.40;58.71
10115;BME280;5097;43.260;27.812;2023-08-31T14:29:31;99561.81;;;31.28;59.93
10115;BME280;5097;43.260;27.812;2023-08-31T14:32:14;99558.03;;;30.61;63.97
10115;BME280;5097;43.260;27.812;2023-08-31T14:34:58;99548.72;;;30.06;65.43